sensor_id;sensor_type;location;lat;lon;timestamp;P1;durP1;ratioP1;P2;durP2;ratioP2
76053;SDS011;64752;48.870;9.082;2023-03-01T00:00:54;39.03;;;20.58;;
76053;SDS011;64752;48.870;9.082;2023-03-01T00:03:19;33.20;;;19.90;;
76053;SDS011;64752;48.870;9.082;2023-03-01T00:05:45;34.80;;;20.93;;
76053;SDS011;64752;48.870;9.082;2023-03-01T00:08:11;34.73;;;20.30;;
76053;SDS011;64752;48.870;9.082;2023-03-01T00:10:36;34.07;;;20.17;;
76053;SDS011;64752;48.870;9.082;2023-03-01T00:13:01;39.77;;;21.00;;
76053;SDS011;64752;48.870;9.082;2023-03-01T00:15:27;38.80;;;21.97;;
76053;SDS011;64752;48.870;9.082;2023-03-01T00:17:52;40.57;;;21.43;;
76053;SDS011;64752;48.870;9.082;2023-03-01T00:20:17;41.33;;;22.07;;
76053;SDS011;64752;48.870;9.082;2023-03-01T00:22:43;36.20;;;20.60;;
76053;SDS011;64752;48.870;9.082;2023-03-01T00:25:08;38.40;;;22.27;;
76053;SDS011;64752;48.870;9.082;2023-03-01T00:27:34;39.60;;;21.93;;
76053;SDS011;64752;48.870;9.082;2023-03-01T00:29:59;43.23;;;23.93;;
76053;SDS011;64752;48.870;9.082;2023-03-01T00:32:24;37.50;;;22.43;;
76053;SDS011;64752;48.870;9.082;2023-03-01T00:34:49;36.83;;;22.83;;
76053;SDS011;64752;48.870;9.082;2023-03-01T00:37:20;33.10;;;19.67;;
76053;SDS011;64752;48.870;9.082;2023-03-01T00:39:45;36.90;;;21.05;;
76053;SDS011;64752;48.870;9.082;2023-03-01T00:42:11;37.03;;;21.77;;
76053;SDS011;64752;48.870;9.082;2023-03-01T00:44:37;37.67;;;21.33;;
76053;SDS011;64752;48.870;9.082;2023-03-01T00:47:03;34.40;;;22.02;;
76053;SDS011;64752;48.870;9.082;2023-03-01T00:49:28;38.43;;;22.60;;
76053;SDS011;64752;48.870;9.082;2023-03-01T00:51:53;35.43;;;21.33;;
76053;SDS011;64752;48.870;9.082;2023-03-01T00:54:18;43.10;;;23.83;;
76053;SDS011;64752;48.870;9.082;2023-03-01T00:56:44;37.37;;;21.90;;
76053;SDS011;64752;48.870;9.082;2023-03-01T00:59:09;35.80;;;20.80;;
76053;SDS011;64752;48.870;9.082;2023-03-01T01:01:34;35.77;;;21.77;;
76053;SDS011;64752;48.870;9.082;2023-03-01T01:04:04;39.10;;;21.73;;
76053;SDS011;64752;48.870;9.082;2023-03-01T01:06:34;38.15;;;22.30;;
76053;SDS011;64752;48.870;9.082;2023-03-01T01:09:00;43.63;;;22.02;;
76053;SDS011;64752;48.870;9.082;2023-03-01T01:11:27;37.53;;;21.40;;
76053;SDS011;64752;48.870;9.082;2023-03-01T01:13:52;43.47;;;24.55;;
76053;SDS011;64752;48.870;9.082;2023-03-01T01:16:18;39.10;;;23.87;;
76053;SDS011;64752;48.870;9.082;2023-03-01T01:18:44;38.90;;;23.33;;
76053;SDS011;64752;48.870;9.082;2023-03-01T01:21:10;40.63;;;22.43;;
76053;SDS011;64752;48.870;9.082;2023-03-01T01:23:37;36.13;;;22.58;;
76053;SDS011;64752;48.870;9.082;2023-03-01T01:26:06;39.40;;;24.40;;
76053;SDS011;64752;48.870;9.082;2023-03-01T01:28:31;39.97;;;23.48;;
76053;SDS011;64752;48.870;9.082;2023-03-01T01:30:57;39.93;;;23.30;;
76053;SDS011;64752;48.870;9.082;2023-03-01T01:33:22;39.73;;;23.20;;
76053;SDS011;64752;48.870;9.082;2023-03-01T01:35:47;37.47;;;22.27;;
76053;SDS011;64752;48.870;9.082;2023-03-01T01:38:12;34.27;;;22.13;;
76053;SDS011;64752;48.870;9.082;2023-03-01T01:40:44;44.97;;;25.07;;
76053;SDS011;64752;48.870;9.082;2023-03-01T01:43:17;41.90;;;25.17;;
76053;SDS011;64752;48.870;9.082;2023-03-01T01:45:43;44.38;;;24.27;;
76053;SDS011;64752;48.870;9.082;2023-03-01T01:48:10;41.47;;;23.90;;
76053;SDS011;64752;48.870;9.082;2023-03-01T01:50:38;37.78;;;23.08;;
76053;SDS011;64752;48.870;9.082;2023-03-01T01:55:29;37.95;;;22.08;;
76053;SDS011;64752;48.870;9.082;2023-03-01T01:57:56;41.47;;;23.40;;
76053;SDS011;64752;48.870;9.082;2023-03-01T02:00:24;37.72;;;22.60;;
76053;SDS011;64752;48.870;9.082;2023-03-01T02:05:19;36.85;;;22.63;;
76053;SDS011;64752;48.870;9.082;2023-03-01T02:07:45;46.80;;;24.25;;
76053;SDS011;64752;48.870;9.082;2023-03-01T02:10:11;39.95;;;23.52;;
76053;SDS011;64752;48.870;9.082;2023-03-01T02:12:36;43.03;;;23.53;;
76053;SDS011;64752;48.870;9.082;2023-03-01T02:15:02;46.83;;;24.87;;
76053;SDS011;64752;48.870;9.082;2023-03-01T02:17:28;54.77;;;28.10;;
76053;SDS011;64752;48.870;9.082;2023-03-01T02:22:34;46.92;;;25.67;;
76053;SDS011;64752;48.870;9.082;2023-03-01T02:25:03;47.22;;;28.02;;
76053;SDS011;64752;48.870;9.082;2023-03-01T02:30:28;39.42;;;23.85;;
76053;SDS011;64752;48.870;9.082;2023-03-01T02:32:54;39.70;;;24.10;;
76053;SDS011;64752;48.870;9.082;2023-03-01T02:35:27;39.38;;;23.63;;
76053;SDS011;64752;48.870;9.082;2023-03-01T02:37:53;37.92;;;22.45;;
76053;SDS011;64752;48.870;9.082;2023-03-01T02:40:21;36.45;;;22.83;;
76053;SDS011;64752;48.870;9.082;2023-03-01T02:42:48;40.97;;;21.83;;
76053;SDS011;64752;48.870;9.082;2023-03-01T02:45:15;37.88;;;21.65;;
76053;SDS011;64752;48.870;9.082;2023-03-01T02:47:40;34.33;;;22.00;;
76053;SDS011;64752;48.870;9.082;2023-03-01T02:50:22;40.57;;;21.47;;
76053;SDS011;64752;48.870;9.082;2023-03-01T02:52:57;32.40;;;20.05;;
76053;SDS011;64752;48.870;9.082;2023-03-01T02:55:26;35.30;;;21.23;;
76053;SDS011;64752;48.870;9.082;2023-03-01T02:57:52;38.37;;;20.00;;
76053;SDS011;64752;48.870;9.082;2023-03-01T03:00:20;30.63;;;19.25;;
76053;SDS011;64752;48.870;9.082;2023-03-01T03:02:46;34.22;;;19.38;;
76053;SDS011;64752;48.870;9.082;2023-03-01T03:05:13;33.38;;;20.02;;
76053;SDS011;64752;48.870;9.082;2023-03-01T03:10:05;32.15;;;19.42;;
76053;SDS011;64752;48.870;9.082;2023-03-01T03:12:31;33.47;;;20.23;;
76053;SDS011;64752;48.870;9.082;2023-03-01T03:14:56;30.17;;;19.37;;
76053;SDS011;64752;48.870;9.082;2023-03-01T03:17:22;28.23;;;18.53;;
76053;SDS011;64752;48.870;9.082;2023-03-01T03:19:47;31.83;;;19.23;;
76053;SDS011;64752;48.870;9.082;2023-03-01T03:22:12;32.33;;;18.63;;
76053;SDS011;64752;48.870;9.082;2023-03-01T03:24:38;35.23;;;19.37;;
76053;SDS011;64752;48.870;9.082;2023-03-01T03:27:04;28.13;;;18.67;;
76053;SDS011;64752;48.870;9.082;2023-03-01T03:29:30;30.88;;;18.67;;
76053;SDS011;64752;48.870;9.082;2023-03-01T03:31:55;28.42;;;16.73;;
76053;SDS011;64752;48.870;9.082;2023-03-01T03:34:20;29.40;;;17.47;;
76053;SDS011;64752;48.870;9.082;2023-03-01T03:36:45;27.90;;;17.60;;
76053;SDS011;64752;48.870;9.082;2023-03-01T03:39:11;28.67;;;17.42;;
76053;SDS011;64752;48.870;9.082;2023-03-01T03:41:36;31.10;;;18.45;;
76053;SDS011;64752;48.870;9.082;2023-03-01T03:44:01;34.30;;;18.47;;
76053;SDS011;64752;48.870;9.082;2023-03-01T03:46:27;27.43;;;16.33;;
76053;SDS011;64752;48.870;9.082;2023-03-01T03:48:52;27.83;;;17.80;;
76053;SDS011;64752;48.870;9.082;2023-03-01T03:51:18;30.17;;;16.73;;
76053;SDS011;64752;48.870;9.082;2023-03-01T03:53:43;27.77;;;16.33;;
76053;SDS011;64752;48.870;9.082;2023-03-01T03:56:09;29.15;;;16.85;;
76053;SDS011;64752;48.870;9.082;2023-03-01T03:58:34;28.77;;;17.13;;
76053;SDS011;64752;48.870;9.082;2023-03-01T04:00:59;25.30;;;16.63;;
76053;SDS011;64752;48.870;9.082;2023-03-01T04:03:26;26.95;;;17.00;;
76053;SDS011;64752;48.870;9.082;2023-03-01T04:05:52;28.83;;;17.13;;
76053;SDS011;64752;48.870;9.082;2023-03-01T04:08:18;26.10;;;16.47;;
76053;SDS011;64752;48.870;9.082;2023-03-01T04:10:46;30.23;;;17.77;;
76053;SDS011;64752;48.870;9.082;2023-03-01T04:13:13;27.33;;;17.98;;
76053;SDS011;64752;48.870;9.082;2023-03-01T04:15:39;28.90;;;16.70;;
76053;SDS011;64752;48.870;9.082;2023-03-01T04:18:04;27.15;;;16.55;;
76053;SDS011;64752;48.870;9.082;2023-03-01T04:20:31;27.87;;;16.90;;
76053;SDS011;64752;48.870;9.082;2023-03-01T04:25:23;29.10;;;16.70;;
76053;SDS011;64752;48.870;9.082;2023-03-01T04:27:49;27.53;;;17.63;;
76053;SDS011;64752;48.870;9.082;2023-03-01T04:30:14;29.87;;;17.90;;
76053;SDS011;64752;48.870;9.082;2023-03-01T04:32:39;26.73;;;17.23;;
76053;SDS011;64752;48.870;9.082;2023-03-01T04:35:05;29.43;;;16.10;;
76053;SDS011;64752;48.870;9.082;2023-03-01T04:37:30;26.77;;;16.60;;
76053;SDS011;64752;48.870;9.082;2023-03-01T04:39:55;27.13;;;16.92;;
76053;SDS011;64752;48.870;9.082;2023-03-01T04:42:21;27.50;;;16.92;;
76053;SDS011;64752;48.870;9.082;2023-03-01T04:44:46;27.50;;;17.08;;
76053;SDS011;64752;48.870;9.082;2023-03-01T04:47:11;27.80;;;16.30;;
76053;SDS011;64752;48.870;9.082;2023-03-01T04:49:37;25.15;;;15.95;;
76053;SDS011;64752;48.870;9.082;2023-03-01T04:52:02;27.98;;;16.85;;
76053;SDS011;64752;48.870;9.082;2023-03-01T04:54:30;30.38;;;17.48;;
76053;SDS011;64752;48.870;9.082;2023-03-01T04:56:55;29.63;;;17.23;;
76053;SDS011;64752;48.870;9.082;2023-03-01T04:59:20;27.53;;;16.73;;
76053;SDS011;64752;48.870;9.082;2023-03-01T05:01:49;30.70;;;18.15;;
76053;SDS011;64752;48.870;9.082;2023-03-01T05:04:15;27.90;;;16.87;;
76053;SDS011;64752;48.870;9.082;2023-03-01T05:06:40;26.30;;;16.87;;
76053;SDS011;64752;48.870;9.082;2023-03-01T05:09:05;29.63;;;17.90;;
76053;SDS011;64752;48.870;9.082;2023-03-01T05:11:31;26.55;;;16.38;;
76053;SDS011;64752;48.870;9.082;2023-03-01T05:14:00;24.55;;;15.50;;
76053;SDS011;64752;48.870;9.082;2023-03-01T05:16:26;26.37;;;16.60;;
76053;SDS011;64752;48.870;9.082;2023-03-01T05:18:51;28.67;;;17.30;;
76053;SDS011;64752;48.870;9.082;2023-03-01T05:21:16;29.70;;;18.17;;
76053;SDS011;64752;48.870;9.082;2023-03-01T05:23:42;33.53;;;17.45;;
76053;SDS011;64752;48.870;9.082;2023-03-01T05:26:08;28.73;;;17.23;;
76053;SDS011;64752;48.870;9.082;2023-03-01T05:28:33;32.30;;;18.47;;
76053;SDS011;64752;48.870;9.082;2023-03-01T05:30:58;31.07;;;17.27;;
76053;SDS011;64752;48.870;9.082;2023-03-01T05:33:24;29.27;;;16.87;;
76053;SDS011;64752;48.870;9.082;2023-03-01T05:35:50;28.77;;;18.33;;
76053;SDS011;64752;48.870;9.082;2023-03-01T05:38:16;27.55;;;16.27;;
76053;SDS011;64752;48.870;9.082;2023-03-01T05:40:42;28.13;;;16.77;;
76053;SDS011;64752;48.870;9.082;2023-03-01T05:43:09;30.73;;;18.25;;
76053;SDS011;64752;48.870;9.082;2023-03-01T05:45:35;28.00;;;17.77;;
76053;SDS011;64752;48.870;9.082;2023-03-01T05:48:01;30.40;;;18.27;;
76053;SDS011;64752;48.870;9.082;2023-03-01T05:50:27;29.13;;;17.93;;
76053;SDS011;64752;48.870;9.082;2023-03-01T05:52:57;29.73;;;18.40;;
76053;SDS011;64752;48.870;9.082;2023-03-01T05:55:22;30.30;;;18.05;;
76053;SDS011;64752;48.870;9.082;2023-03-01T05:57:48;34.40;;;18.90;;
76053;SDS011;64752;48.870;9.082;2023-03-01T06:00:15;28.23;;;17.95;;
76053;SDS011;64752;48.870;9.082;2023-03-01T06:02:41;30.60;;;17.73;;
76053;SDS011;64752;48.870;9.082;2023-03-01T06:05:07;28.73;;;16.60;;
76053;SDS011;64752;48.870;9.082;2023-03-01T06:07:32;32.97;;;18.92;;
76053;SDS011;64752;48.870;9.082;2023-03-01T06:09:57;30.70;;;18.23;;
76053;SDS011;64752;48.870;9.082;2023-03-01T06:12:23;33.78;;;18.95;;
76053;SDS011;64752;48.870;9.082;2023-03-01T06:14:48;29.83;;;18.07;;
76053;SDS011;64752;48.870;9.082;2023-03-01T06:17:13;26.83;;;17.05;;
76053;SDS011;64752;48.870;9.082;2023-03-01T06:19:38;31.02;;;18.23;;
76053;SDS011;64752;48.870;9.082;2023-03-01T06:22:04;32.08;;;18.83;;
76053;SDS011;64752;48.870;9.082;2023-03-01T06:24:29;35.70;;;20.67;;
76053;SDS011;64752;48.870;9.082;2023-03-01T06:26:54;35.00;;;18.77;;
76053;SDS011;64752;48.870;9.082;2023-03-01T06:29:20;33.58;;;18.67;;
76053;SDS011;64752;48.870;9.082;2023-03-01T06:31:47;30.77;;;19.33;;
76053;SDS011;64752;48.870;9.082;2023-03-01T06:34:12;30.03;;;18.43;;
76053;SDS011;64752;48.870;9.082;2023-03-01T06:36:38;31.97;;;19.43;;
76053;SDS011;64752;48.870;9.082;2023-03-01T06:39:04;31.80;;;18.33;;
76053;SDS011;64752;48.870;9.082;2023-03-01T06:41:30;36.00;;;20.10;;
76053;SDS011;64752;48.870;9.082;2023-03-01T06:43:55;31.00;;;19.38;;
76053;SDS011;64752;48.870;9.082;2023-03-01T06:46:21;27.13;;;18.30;;
76053;SDS011;64752;48.870;9.082;2023-03-01T06:48:46;31.30;;;19.00;;
76053;SDS011;64752;48.870;9.082;2023-03-01T06:51:11;33.97;;;20.07;;
76053;SDS011;64752;48.870;9.082;2023-03-01T06:53:36;33.80;;;20.05;;
76053;SDS011;64752;48.870;9.082;2023-03-01T06:56:02;36.05;;;21.13;;
76053;SDS011;64752;48.870;9.082;2023-03-01T06:58:27;32.53;;;19.95;;
76053;SDS011;64752;48.870;9.082;2023-03-01T07:00:52;38.30;;;19.80;;
76053;SDS011;64752;48.870;9.082;2023-03-01T07:03:18;32.90;;;19.23;;
76053;SDS011;64752;48.870;9.082;2023-03-01T07:05:43;31.50;;;20.40;;
76053;SDS011;64752;48.870;9.082;2023-03-01T07:08:09;31.33;;;19.43;;
76053;SDS011;64752;48.870;9.082;2023-03-01T07:10:34;31.48;;;17.42;;
76053;SDS011;64752;48.870;9.082;2023-03-01T07:13:00;24.80;;;16.17;;
76053;SDS011;64752;48.870;9.082;2023-03-01T07:15:26;28.15;;;17.08;;
76053;SDS011;64752;48.870;9.082;2023-03-01T07:17:51;31.70;;;18.15;;
76053;SDS011;64752;48.870;9.082;2023-03-01T07:20:17;28.70;;;17.00;;
76053;SDS011;64752;48.870;9.082;2023-03-01T07:22:42;29.35;;;17.05;;
76053;SDS011;64752;48.870;9.082;2023-03-01T07:25:08;22.40;;;14.70;;
76053;SDS011;64752;48.870;9.082;2023-03-01T07:27:33;26.58;;;16.95;;
76053;SDS011;64752;48.870;9.082;2023-03-01T07:29:59;21.38;;;14.55;;
76053;SDS011;64752;48.870;9.082;2023-03-01T07:32:24;23.98;;;15.68;;
76053;SDS011;64752;48.870;9.082;2023-03-01T07:34:50;25.87;;;16.07;;
76053;SDS011;64752;48.870;9.082;2023-03-01T07:37:16;20.58;;;13.90;;
76053;SDS011;64752;48.870;9.082;2023-03-01T07:39:41;21.65;;;14.60;;
76053;SDS011;64752;48.870;9.082;2023-03-01T07:42:07;21.05;;;15.00;;
76053;SDS011;64752;48.870;9.082;2023-03-01T07:44:32;22.70;;;14.90;;
76053;SDS011;64752;48.870;9.082;2023-03-01T07:46:57;23.42;;;15.10;;
76053;SDS011;64752;48.870;9.082;2023-03-01T07:49:23;24.73;;;15.73;;
76053;SDS011;64752;48.870;9.082;2023-03-01T07:51:48;24.58;;;14.40;;
76053;SDS011;64752;48.870;9.082;2023-03-01T07:54:13;23.73;;;15.27;;
76053;SDS011;64752;48.870;9.082;2023-03-01T07:56:38;25.58;;;16.35;;
76053;SDS011;64752;48.870;9.082;2023-03-01T07:59:05;23.15;;;15.77;;
76053;SDS011;64752;48.870;9.082;2023-03-01T08:01:31;22.47;;;15.13;;
76053;SDS011;64752;48.870;9.082;2023-03-01T08:03:56;23.27;;;14.85;;
76053;SDS011;64752;48.870;9.082;2023-03-01T08:06:21;21.95;;;16.02;;
76053;SDS011;64752;48.870;9.082;2023-03-01T08:08:46;22.63;;;16.40;;
76053;SDS011;64752;48.870;9.082;2023-03-01T08:11:12;23.50;;;15.80;;
76053;SDS011;64752;48.870;9.082;2023-03-01T08:13:38;24.23;;;15.55;;
76053;SDS011;64752;48.870;9.082;2023-03-01T08:16:04;23.23;;;15.77;;
76053;SDS011;64752;48.870;9.082;2023-03-01T08:18:30;26.00;;;16.33;;
76053;SDS011;64752;48.870;9.082;2023-03-01T08:20:55;23.35;;;15.63;;
76053;SDS011;64752;48.870;9.082;2023-03-01T08:23:21;22.83;;;15.82;;
76053;SDS011;64752;48.870;9.082;2023-03-01T08:25:46;28.38;;;16.23;;
76053;SDS011;64752;48.870;9.082;2023-03-01T08:28:11;26.35;;;16.30;;
76053;SDS011;64752;48.870;9.082;2023-03-01T08:30:37;26.10;;;15.70;;
76053;SDS011;64752;48.870;9.082;2023-03-01T08:33:05;24.25;;;15.98;;
76053;SDS011;64752;48.870;9.082;2023-03-01T08:35:30;26.80;;;16.50;;
76053;SDS011;64752;48.870;9.082;2023-03-01T08:37:55;27.85;;;16.05;;
76053;SDS011;64752;48.870;9.082;2023-03-01T08:40:21;22.95;;;14.95;;
76053;SDS011;64752;48.870;9.082;2023-03-01T08:42:46;23.45;;;15.98;;
76053;SDS011;64752;48.870;9.082;2023-03-01T08:45:11;23.85;;;16.25;;
76053;SDS011;64752;48.870;9.082;2023-03-01T08:47:37;21.73;;;15.27;;
76053;SDS011;64752;48.870;9.082;2023-03-01T08:50:02;20.88;;;15.15;;
76053;SDS011;64752;48.870;9.082;2023-03-01T08:52:28;20.30;;;14.68;;
76053;SDS011;64752;48.870;9.082;2023-03-01T08:54:55;24.55;;;15.70;;
76053;SDS011;64752;48.870;9.082;2023-03-01T08:57:20;22.40;;;15.73;;
76053;SDS011;64752;48.870;9.082;2023-03-01T08:59:45;23.50;;;15.25;;
76053;SDS011;64752;48.870;9.082;2023-03-01T09:02:15;20.03;;;15.23;;
76053;SDS011;64752;48.870;9.082;2023-03-01T09:04:41;20.67;;;15.05;;
76053;SDS011;64752;48.870;9.082;2023-03-01T09:07:06;22.23;;;15.93;;
76053;SDS011;64752;48.870;9.082;2023-03-01T09:09:32;25.57;;;16.40;;
76053;SDS011;64752;48.870;9.082;2023-03-01T09:11:57;21.67;;;15.70;;
76053;SDS011;64752;48.870;9.082;2023-03-01T09:14:22;22.15;;;16.48;;
76053;SDS011;64752;48.870;9.082;2023-03-01T09:16:48;23.38;;;16.25;;
76053;SDS011;64752;48.870;9.082;2023-03-01T09:19:13;20.70;;;15.43;;
76053;SDS011;64752;48.870;9.082;2023-03-01T09:21:39;20.17;;;15.93;;
76053;SDS011;64752;48.870;9.082;2023-03-01T09:24:04;20.55;;;15.55;;
76053;SDS011;64752;48.870;9.082;2023-03-01T09:26:29;20.50;;;15.67;;
76053;SDS011;64752;48.870;9.082;2023-03-01T09:28:55;20.55;;;15.52;;
76053;SDS011;64752;48.870;9.082;2023-03-01T09:31:21;21.40;;;16.03;;
76053;SDS011;64752;48.870;9.082;2023-03-01T09:33:47;24.75;;;16.88;;
76053;SDS011;64752;48.870;9.082;2023-03-01T09:36:14;24.10;;;16.20;;
76053;SDS011;64752;48.870;9.082;2023-03-01T09:38:39;22.00;;;15.40;;
76053;SDS011;64752;48.870;9.082;2023-03-01T09:41:21;22.17;;;16.00;;
76053;SDS011;64752;48.870;9.082;2023-03-01T09:43:50;23.08;;;16.20;;
76053;SDS011;64752;48.870;9.082;2023-03-01T09:46:22;24.60;;;16.13;;
76053;SDS011;64752;48.870;9.082;2023-03-01T09:48:49;22.30;;;15.55;;
76053;SDS011;64752;48.870;9.082;2023-03-01T09:53:40;24.75;;;15.32;;
76053;SDS011;64752;48.870;9.082;2023-03-01T09:56:12;19.88;;;14.88;;
76053;SDS011;64752;48.870;9.082;2023-03-01T10:03:44;20.40;;;15.57;;
76053;SDS011;64752;48.870;9.082;2023-03-01T10:06:16;23.50;;;15.90;;
76053;SDS011;64752;48.870;9.082;2023-03-01T10:08:48;24.17;;;16.77;;
76053;SDS011;64752;48.870;9.082;2023-03-01T10:11:21;28.27;;;16.45;;
76053;SDS011;64752;48.870;9.082;2023-03-01T10:13:50;22.10;;;16.27;;
76053;SDS011;64752;48.870;9.082;2023-03-01T10:16:23;23.50;;;16.30;;
76053;SDS011;64752;48.870;9.082;2023-03-01T10:18:57;22.48;;;15.60;;
76053;SDS011;64752;48.870;9.082;2023-03-01T10:21:25;21.38;;;15.20;;
76053;SDS011;64752;48.870;9.082;2023-03-01T10:23:51;20.58;;;15.40;;
76053;SDS011;64752;48.870;9.082;2023-03-01T10:31:15;22.23;;;15.57;;
76053;SDS011;64752;48.870;9.082;2023-03-01T10:33:43;21.33;;;16.08;;
76053;SDS011;64752;48.870;9.082;2023-03-01T10:36:08;21.73;;;15.27;;
76053;SDS011;64752;48.870;9.082;2023-03-01T10:41:33;20.20;;;14.93;;
76053;SDS011;64752;48.870;9.082;2023-03-01T10:43:59;20.93;;;15.67;;
76053;SDS011;64752;48.870;9.082;2023-03-01T10:53:55;21.80;;;15.52;;
76053;SDS011;64752;48.870;9.082;2023-03-01T10:56:20;21.23;;;15.63;;
76053;SDS011;64752;48.870;9.082;2023-03-01T11:04:03;22.98;;;14.57;;
76053;SDS011;64752;48.870;9.082;2023-03-01T11:06:34;21.42;;;15.30;;
76053;SDS011;64752;48.870;9.082;2023-03-01T11:09:19;22.60;;;16.00;;
76053;SDS011;64752;48.870;9.082;2023-03-01T11:11:47;20.75;;;15.48;;
76053;SDS011;64752;48.870;9.082;2023-03-01T11:14:21;23.15;;;15.02;;
76053;SDS011;64752;48.870;9.082;2023-03-01T11:16:48;22.02;;;15.30;;
76053;SDS011;64752;48.870;9.082;2023-03-01T11:19:15;19.88;;;15.25;;
76053;SDS011;64752;48.870;9.082;2023-03-01T11:24:08;21.60;;;14.63;;
76053;SDS011;64752;48.870;9.082;2023-03-01T11:26:36;19.02;;;14.63;;
76053;SDS011;64752;48.870;9.082;2023-03-01T11:29:04;19.25;;;14.15;;
76053;SDS011;64752;48.870;9.082;2023-03-01T11:31:31;21.15;;;14.63;;
76053;SDS011;64752;48.870;9.082;2023-03-01T11:34:03;21.23;;;14.53;;
76053;SDS011;64752;48.870;9.082;2023-03-01T11:36:32;19.45;;;14.75;;
76053;SDS011;64752;48.870;9.082;2023-03-01T11:39:23;18.27;;;14.05;;
76053;SDS011;64752;48.870;9.082;2023-03-01T11:41:46;20.30;;;13.48;;
76053;SDS011;64752;48.870;9.082;2023-03-01T11:44:18;20.25;;;14.10;;
76053;SDS011;64752;48.870;9.082;2023-03-01T11:46:48;18.65;;;14.93;;
76053;SDS011;64752;48.870;9.082;2023-03-01T11:57:32;20.23;;;15.05;;
76053;SDS011;64752;48.870;9.082;2023-03-01T12:09:59;18.38;;;14.35;;
76053;SDS011;64752;48.870;9.082;2023-03-01T12:20:36;19.25;;;14.15;;
76053;SDS011;64752;48.870;9.082;2023-03-01T12:43:22;18.30;;;14.45;;
76053;SDS011;64752;48.870;9.082;2023-03-01T12:51:06;21.23;;;13.98;;
76053;SDS011;64752;48.870;9.082;2023-03-01T12:53:36;19.13;;;14.05;;
76053;SDS011;64752;48.870;9.082;2023-03-01T12:56:04;19.98;;;14.75;;
76053;SDS011;64752;48.870;9.082;2023-03-01T13:06:11;21.17;;;14.47;;
76053;SDS011;64752;48.870;9.082;2023-03-01T13:11:11;21.00;;;14.90;;
76053;SDS011;64752;48.870;9.082;2023-03-01T13:13:42;18.85;;;14.88;;
76053;SDS011;64752;48.870;9.082;2023-03-01T13:16:38;18.87;;;14.53;;
76053;SDS011;64752;48.870;9.082;2023-03-01T13:19:17;21.30;;;15.05;;
76053;SDS011;64752;48.870;9.082;2023-03-01T13:21:42;18.52;;;14.20;;
76053;SDS011;64752;48.870;9.082;2023-03-01T13:29:43;20.23;;;15.83;;
76053;SDS011;64752;48.870;9.082;2023-03-01T13:32:20;23.00;;;15.52;;
76053;SDS011;64752;48.870;9.082;2023-03-01T13:34:46;19.45;;;14.93;;
76053;SDS011;64752;48.870;9.082;2023-03-01T13:37:25;20.73;;;15.00;;
76053;SDS011;64752;48.870;9.082;2023-03-01T13:39:54;20.10;;;14.30;;
76053;SDS011;64752;48.870;9.082;2023-03-01T13:42:33;21.17;;;14.77;;
76053;SDS011;64752;48.870;9.082;2023-03-01T13:47:42;18.48;;;14.73;;
76053;SDS011;64752;48.870;9.082;2023-03-01T13:50:15;20.02;;;14.43;;
76053;SDS011;64752;48.870;9.082;2023-03-01T13:55:26;23.92;;;15.63;;
76053;SDS011;64752;48.870;9.082;2023-03-01T13:57:58;19.65;;;14.48;;
76053;SDS011;64752;48.870;9.082;2023-03-01T14:02:59;20.63;;;14.75;;
76053;SDS011;64752;48.870;9.082;2023-03-01T14:05:24;21.70;;;14.88;;
76053;SDS011;64752;48.870;9.082;2023-03-01T14:07:50;25.85;;;15.80;;
76053;SDS011;64752;48.870;9.082;2023-03-01T14:10:16;21.00;;;15.57;;
76053;SDS011;64752;48.870;9.082;2023-03-01T14:12:48;18.80;;;14.68;;
76053;SDS011;64752;48.870;9.082;2023-03-01T14:20:29;20.10;;;15.00;;
76053;SDS011;64752;48.870;9.082;2023-03-01T14:22:56;19.25;;;14.40;;
76053;SDS011;64752;48.870;9.082;2023-03-01T14:25:27;19.95;;;14.65;;
76053;SDS011;64752;48.870;9.082;2023-03-01T14:27:57;19.17;;;14.85;;
76053;SDS011;64752;48.870;9.082;2023-03-01T14:32:57;20.35;;;15.38;;
76053;SDS011;64752;48.870;9.082;2023-03-01T14:35:24;17.98;;;13.85;;
76053;SDS011;64752;48.870;9.082;2023-03-01T14:37:50;22.15;;;15.55;;
76053;SDS011;64752;48.870;9.082;2023-03-01T14:42:53;21.80;;;15.10;;
76053;SDS011;64752;48.870;9.082;2023-03-01T14:45:18;20.98;;;15.25;;
76053;SDS011;64752;48.870;9.082;2023-03-01T14:47:45;22.00;;;15.50;;
76053;SDS011;64752;48.870;9.082;2023-03-01T14:52:42;22.70;;;16.20;;
76053;SDS011;64752;48.870;9.082;2023-03-01T14:55:16;20.88;;;14.98;;
76053;SDS011;64752;48.870;9.082;2023-03-01T14:57:43;23.40;;;15.35;;
76053;SDS011;64752;48.870;9.082;2023-03-01T15:00:15;21.87;;;15.10;;
76053;SDS011;64752;48.870;9.082;2023-03-01T15:02:41;22.88;;;16.25;;
76053;SDS011;64752;48.870;9.082;2023-03-01T15:05:08;21.40;;;15.57;;
76053;SDS011;64752;48.870;9.082;2023-03-01T15:07:35;22.52;;;15.75;;
76053;SDS011;64752;48.870;9.082;2023-03-01T15:10:01;23.33;;;15.48;;
76053;SDS011;64752;48.870;9.082;2023-03-01T15:14:54;22.33;;;15.60;;
76053;SDS011;64752;48.870;9.082;2023-03-01T15:17:28;23.63;;;16.27;;
76053;SDS011;64752;48.870;9.082;2023-03-01T15:19:55;20.90;;;14.48;;
76053;SDS011;64752;48.870;9.082;2023-03-01T15:22:20;22.50;;;15.82;;
76053;SDS011;64752;48.870;9.082;2023-03-01T15:24:48;22.08;;;16.48;;
76053;SDS011;64752;48.870;9.082;2023-03-01T15:27:17;23.88;;;16.83;;
76053;SDS011;64752;48.870;9.082;2023-03-01T15:29:48;23.20;;;15.73;;
76053;SDS011;64752;48.870;9.082;2023-03-01T15:40:17;24.10;;;15.98;;
76053;SDS011;64752;48.870;9.082;2023-03-01T15:42:42;31.00;;;20.15;;
76053;SDS011;64752;48.870;9.082;2023-03-01T15:45:27;28.33;;;18.83;;
76053;SDS011;64752;48.870;9.082;2023-03-01T15:50:20;24.73;;;16.10;;
76053;SDS011;64752;48.870;9.082;2023-03-01T15:52:46;20.67;;;14.63;;
76053;SDS011;64752;48.870;9.082;2023-03-01T15:55:20;26.27;;;15.73;;
76053;SDS011;64752;48.870;9.082;2023-03-01T15:57:46;21.48;;;16.02;;
76053;SDS011;64752;48.870;9.082;2023-03-01T16:00:12;23.95;;;14.95;;
76053;SDS011;64752;48.870;9.082;2023-03-01T16:02:38;22.13;;;14.93;;
76053;SDS011;64752;48.870;9.082;2023-03-01T16:05:04;26.65;;;15.90;;
76053;SDS011;64752;48.870;9.082;2023-03-01T16:07:29;22.40;;;15.73;;
76053;SDS011;64752;48.870;9.082;2023-03-01T16:09:56;22.20;;;15.60;;
76053;SDS011;64752;48.870;9.082;2023-03-01T16:12:21;23.67;;;15.70;;
76053;SDS011;64752;48.870;9.082;2023-03-01T16:14:46;22.77;;;15.88;;
76053;SDS011;64752;48.870;9.082;2023-03-01T16:17:13;26.33;;;16.52;;
76053;SDS011;64752;48.870;9.082;2023-03-01T16:19:38;22.63;;;15.50;;
76053;SDS011;64752;48.870;9.082;2023-03-01T16:22:04;22.40;;;14.82;;
76053;SDS011;64752;48.870;9.082;2023-03-01T16:24:29;24.23;;;15.75;;
76053;SDS011;64752;48.870;9.082;2023-03-01T16:26:55;22.15;;;15.63;;
76053;SDS011;64752;48.870;9.082;2023-03-01T16:29:20;22.35;;;14.95;;
76053;SDS011;64752;48.870;9.082;2023-03-01T16:31:45;22.45;;;15.30;;
76053;SDS011;64752;48.870;9.082;2023-03-01T16:34:11;22.38;;;14.50;;
76053;SDS011;64752;48.870;9.082;2023-03-01T16:36:36;24.55;;;15.68;;
76053;SDS011;64752;48.870;9.082;2023-03-01T16:39:02;23.20;;;14.80;;
76053;SDS011;64752;48.870;9.082;2023-03-01T16:41:28;22.88;;;15.98;;
76053;SDS011;64752;48.870;9.082;2023-03-01T16:43:53;23.20;;;16.00;;
76053;SDS011;64752;48.870;9.082;2023-03-01T16:46:19;23.17;;;15.10;;